Aviation Digital Data Service (ADDS)

Output produced by METARs form (0010 UTC 23 March 2019)
found at http://www.aviationweather.gov/metar/data/
 
METAR text: UNNT 230000Z 22003MPS CAVOK M05/M08 Q1021 R25/190065 R34/110070 NOSIG RMK QFE756/1008
Conditions at: UNNT (TOLMACHEVO , RU) observed 0000 UTC 23 March 2019
Temperature: -5.0°C (23°F)
Dewpoint: -8.0°C (18°F) [RH = 79%]
Pressure (altimeter): 30.15 inches Hg (1021.0 mb)
Winds: from the SW (220 degrees) at 7 MPH (6 knots; 3.1 m/s)
Visibility: 6 or more miles (10+ km)
Ceiling: ceiling and visibility are OK
Clouds: unknown
Weather: no significant weather observed at this time

METAR text: UNNT 222330Z 21004MPS CAVOK M05/M07 Q1021 R25/190065 R34/110070 NOSIG RMK QFE756/1008
Conditions at: UNNT (TOLMACHEVO , RU) observed 2330 UTC 22 March 2019
Temperature: -5.0°C (23°F)
Dewpoint: -7.0°C (19°F) [RH = 86%]
Pressure (altimeter): 30.15 inches Hg (1021.0 mb)
Winds: from the SSW (210 degrees) at 9 MPH (8 knots; 4.1 m/s)
Visibility: 6 or more miles (10+ km)
Ceiling: ceiling and visibility are OK
Clouds: unknown
Weather: no significant weather observed at this time

METAR text: UNNT 222300Z 20004MPS CAVOK M05/M07 Q1021 R25/190065 R34/110070 NOSIG RMK QFE755/1007
Conditions at: UNNT (TOLMACHEVO , RU) observed 2300 UTC 22 March 2019
Temperature: -5.0°C (23°F)
Dewpoint: -7.0°C (19°F) [RH = 86%]
Pressure (altimeter): 30.15 inches Hg (1021.0 mb)
Winds: from the SSW (200 degrees) at 9 MPH (8 knots; 4.1 m/s)
Visibility: 6 or more miles (10+ km)
Ceiling: ceiling and visibility are OK
Clouds: unknown
Weather: no significant weather observed at this time

METAR text: UNNT 222230Z 20004MPS CAVOK M05/M08 Q1021 R25/190065 R34/110070 NOSIG RMK QFE755/1007
Conditions at: UNNT (TOLMACHEVO , RU) observed 2230 UTC 22 March 2019
Temperature: -5.0°C (23°F)
Dewpoint: -8.0°C (18°F) [RH = 79%]
Pressure (altimeter): 30.15 inches Hg (1021.0 mb)
Winds: from the SSW (200 degrees) at 9 MPH (8 knots; 4.1 m/s)
Visibility: 6 or more miles (10+ km)
Ceiling: ceiling and visibility are OK
Clouds: unknown
Weather: no significant weather observed at this time

METAR text: UNNT 222200Z 20003MPS CAVOK M05/M08 Q1021 R25/190065 R34/110070 NOSIG RMK QFE755/1007
Conditions at: UNNT (TOLMACHEVO , RU) observed 2200 UTC 22 March 2019
Temperature: -5.0°C (23°F)
Dewpoint: -8.0°C (18°F) [RH = 79%]
Pressure (altimeter): 30.15 inches Hg (1021.0 mb)
Winds: from the SSW (200 degrees) at 7 MPH (6 knots; 3.1 m/s)
Visibility: 6 or more miles (10+ km)
Ceiling: ceiling and visibility are OK
Clouds: unknown
Weather: no significant weather observed at this time

METAR text: UNNT 222130Z 20003MPS CAVOK M04/M08 Q1021 R25/190065 R34/110070 NOSIG RMK QFE755/1007
Conditions at: UNNT (TOLMACHEVO , RU) observed 2130 UTC 22 March 2019
Temperature: -4.0°C (25°F)
Dewpoint: -8.0°C (18°F) [RH = 74%]
Pressure (altimeter): 30.15 inches Hg (1021.0 mb)
Winds: from the SSW (200 degrees) at 7 MPH (6 knots; 3.1 m/s)
Visibility: 6 or more miles (10+ km)
Ceiling: ceiling and visibility are OK
Clouds: unknown
Weather: no significant weather observed at this time

METAR text: UNNT 222100Z 20003MPS CAVOK M04/M07 Q1021 R25/190065 R34/110070 NOSIG RMK QFE755/1007
Conditions at: UNNT (TOLMACHEVO , RU) observed 2100 UTC 22 March 2019
Temperature: -4.0°C (25°F)
Dewpoint: -7.0°C (19°F) [RH = 80%]
Pressure (altimeter): 30.15 inches Hg (1021.0 mb)
Winds: from the SSW (200 degrees) at 7 MPH (6 knots; 3.1 m/s)
Visibility: 6 or more miles (10+ km)
Ceiling: ceiling and visibility are OK
Clouds: unknown
Weather: no significant weather observed at this time

METAR text: UNNT 222030Z 20003MPS CAVOK M04/M08 Q1021 R25/190065 R34/110070 NOSIG RMK QFE755/1007
Conditions at: UNNT (TOLMACHEVO , RU) observed 2030 UTC 22 March 2019
Temperature: -4.0°C (25°F)
Dewpoint: -8.0°C (18°F) [RH = 74%]
Pressure (altimeter): 30.15 inches Hg (1021.0 mb)
Winds: from the SSW (200 degrees) at 7 MPH (6 knots; 3.1 m/s)
Visibility: 6 or more miles (10+ km)
Ceiling: ceiling and visibility are OK
Clouds: unknown
Weather: no significant weather observed at this time

METAR text: UNNT 222000Z 19003MPS CAVOK M03/M07 Q1021 R25/190065 R34/110070 NOSIG RMK QFE755/1007
Conditions at: UNNT (TOLMACHEVO , RU) observed 2000 UTC 22 March 2019
Temperature: -3.0°C (27°F)
Dewpoint: -7.0°C (19°F) [RH = 74%]
Pressure (altimeter): 30.15 inches Hg (1021.0 mb)
Winds: from the S (190 degrees) at 7 MPH (6 knots; 3.1 m/s)
Visibility: 6 or more miles (10+ km)
Ceiling: ceiling and visibility are OK
Clouds: unknown
Weather: no significant weather observed at this time

METAR text: UNNT 221930Z 19003MPS CAVOK M03/M07 Q1021 R25/190065 R34/110070 NOSIG RMK QFE755/1007
Conditions at: UNNT (TOLMACHEVO , RU) observed 1930 UTC 22 March 2019
Temperature: -3.0°C (27°F)
Dewpoint: -7.0°C (19°F) [RH = 74%]
Pressure (altimeter): 30.15 inches Hg (1021.0 mb)
Winds: from the S (190 degrees) at 7 MPH (6 knots; 3.1 m/s)
Visibility: 6 or more miles (10+ km)
Ceiling: ceiling and visibility are OK
Clouds: unknown
Weather: no significant weather observed at this time

METAR text: UNNT 221900Z 21003MPS CAVOK M03/M07 Q1021 R25/190065 R34/110070 NOSIG RMK QFE755/1007
Conditions at: UNNT (TOLMACHEVO , RU) observed 1900 UTC 22 March 2019
Temperature: -3.0°C (27°F)
Dewpoint: -7.0°C (19°F) [RH = 74%]
Pressure (altimeter): 30.15 inches Hg (1021.0 mb)
Winds: from the SSW (210 degrees) at 7 MPH (6 knots; 3.1 m/s)
Visibility: 6 or more miles (10+ km)
Ceiling: ceiling and visibility are OK
Clouds: unknown
Weather: no significant weather observed at this time

METAR text: UNNT 221830Z 22003MPS CAVOK M02/M08 Q1021 R25/190065 R34/110070 NOSIG RMK QFE755/1007
Conditions at: UNNT (TOLMACHEVO , RU) observed 1830 UTC 22 March 2019
Temperature: -2.0°C (28°F)
Dewpoint: -8.0°C (18°F) [RH = 63%]
Pressure (altimeter): 30.15 inches Hg (1021.0 mb)
Winds: from the SW (220 degrees) at 7 MPH (6 knots; 3.1 m/s)
Visibility: 6 or more miles (10+ km)
Ceiling: ceiling and visibility are OK
Clouds: unknown
Weather: no significant weather observed at this time

METAR text: UNNT 221800Z 22003MPS CAVOK M02/M08 Q1021 R25/190065 R34/110070 NOSIG RMK QFE755/1007
Conditions at: UNNT (TOLMACHEVO , RU) observed 1800 UTC 22 March 2019
Temperature: -2.0°C (28°F)
Dewpoint: -8.0°C (18°F) [RH = 63%]
Pressure (altimeter): 30.15 inches Hg (1021.0 mb)
Winds: from the SW (220 degrees) at 7 MPH (6 knots; 3.1 m/s)
Visibility: 6 or more miles (10+ km)
Ceiling: ceiling and visibility are OK
Clouds: unknown
Weather: no significant weather observed at this time

METAR text: UNNT 221730Z 19004MPS CAVOK M02/M07 Q1021 R25/190065 R34/110070 NOSIG RMK QFE755/1007
Conditions at: UNNT (TOLMACHEVO , RU) observed 1730 UTC 22 March 2019
Temperature: -2.0°C (28°F)
Dewpoint: -7.0°C (19°F) [RH = 69%]
Pressure (altimeter): 30.15 inches Hg (1021.0 mb)
Winds: from the S (190 degrees) at 9 MPH (8 knots; 4.1 m/s)
Visibility: 6 or more miles (10+ km)
Ceiling: ceiling and visibility are OK
Clouds: unknown
Weather: no significant weather observed at this time

METAR text: UNNT 221700Z 20003MPS CAVOK M01/M07 Q1021 R25/190065 R34/110070 NOSIG RMK QFE755/1007
Conditions at: UNNT (TOLMACHEVO , RU) observed 1700 UTC 22 March 2019
Temperature: -1.0°C (30°F)
Dewpoint: -7.0°C (19°F) [RH = 64%]
Pressure (altimeter): 30.15 inches Hg (1021.0 mb)
Winds: from the SSW (200 degrees) at 7 MPH (6 knots; 3.1 m/s)
Visibility: 6 or more miles (10+ km)
Ceiling: ceiling and visibility are OK
Clouds: unknown
Weather: no significant weather observed at this time

METAR text: UNNT 221630Z 21004MPS CAVOK M01/M07 Q1021 R25/190065 R34/110070 NOSIG RMK QFE756/1008
Conditions at: UNNT (TOLMACHEVO , RU) observed 1630 UTC 22 March 2019
Temperature: -1.0°C (30°F)
Dewpoint: -7.0°C (19°F) [RH = 64%]
Pressure (altimeter): 30.15 inches Hg (1021.0 mb)
Winds: from the SSW (210 degrees) at 9 MPH (8 knots; 4.1 m/s)
Visibility: 6 or more miles (10+ km)
Ceiling: ceiling and visibility are OK
Clouds: unknown
Weather: no significant weather observed at this time

METAR text: UNNT 221600Z 22004MPS CAVOK M00/M07 Q1021 R25/190065 R34/110070 NOSIG RMK QFE756/1008
Conditions at: UNNT (TOLMACHEVO , RU) observed 1600 UTC 22 March 2019
Temperature: 0.0°C (32°F)
Dewpoint: -7.0°C (19°F) [RH = 59%]
Pressure (altimeter): 30.15 inches Hg (1021.0 mb)
Winds: from the SW (220 degrees) at 9 MPH (8 knots; 4.1 m/s)
Visibility: 6 or more miles (10+ km)
Ceiling: ceiling and visibility are OK
Clouds: unknown
Weather: no significant weather observed at this time

METAR text: UNNT 221530Z 21004MPS CAVOK M00/M07 Q1021 R25/190065 R34/110070 NOSIG RMK QFE756/1008
Conditions at: UNNT (TOLMACHEVO , RU) observed 1530 UTC 22 March 2019
Temperature: 0.0°C (32°F)
Dewpoint: -7.0°C (19°F) [RH = 59%]
Pressure (altimeter): 30.15 inches Hg (1021.0 mb)
Winds: from the SSW (210 degrees) at 9 MPH (8 knots; 4.1 m/s)
Visibility: 6 or more miles (10+ km)
Ceiling: ceiling and visibility are OK
Clouds: unknown
Weather: no significant weather observed at this time

METAR text: UNNT 221500Z 20004MPS CAVOK M00/M07 Q1021 R25/190065 R34/110070 NOSIG RMK QFE756/1008
Conditions at: UNNT (TOLMACHEVO , RU) observed 1500 UTC 22 March 2019
Temperature: 0.0°C (32°F)
Dewpoint: -7.0°C (19°F) [RH = 59%]
Pressure (altimeter): 30.15 inches Hg (1021.0 mb)
Winds: from the SSW (200 degrees) at 9 MPH (8 knots; 4.1 m/s)
Visibility: 6 or more miles (10+ km)
Ceiling: ceiling and visibility are OK
Clouds: unknown
Weather: no significant weather observed at this time

METAR text: UNNT 221430Z 20004MPS CAVOK 01/M07 Q1021 R25/190065 R34/110070 NOSIG RMK QFE756/1008
Conditions at: UNNT (TOLMACHEVO , RU) observed 1430 UTC 22 March 2019
Temperature: 1.0°C (34°F)
Dewpoint: -7.0°C (19°F) [RH = 55%]
Pressure (altimeter): 30.15 inches Hg (1021.0 mb)
Winds: from the SSW (200 degrees) at 9 MPH (8 knots; 4.1 m/s)
Visibility: 6 or more miles (10+ km)
Ceiling: ceiling and visibility are OK
Clouds: unknown
Weather: no significant weather observed at this time

METAR text: UNNT 221400Z 21003MPS CAVOK 01/M07 Q1021 R25/190065 R34/110070 NOSIG RMK QFE756/1008
Conditions at: UNNT (TOLMACHEVO , RU) observed 1400 UTC 22 March 2019
Temperature: 1.0°C (34°F)
Dewpoint: -7.0°C (19°F) [RH = 55%]
Pressure (altimeter): 30.15 inches Hg (1021.0 mb)
Winds: from the SSW (210 degrees) at 7 MPH (6 knots; 3.1 m/s)
Visibility: 6 or more miles (10+ km)
Ceiling: ceiling and visibility are OK
Clouds: unknown
Weather: no significant weather observed at this time

METAR text: UNNT 221330Z 20003MPS CAVOK 01/M06 Q1021 R25/190065 R34/110070 NOSIG RMK QFE756/1008
Conditions at: UNNT (TOLMACHEVO , RU) observed 1330 UTC 22 March 2019
Temperature: 1.0°C (34°F)
Dewpoint: -6.0°C (21°F) [RH = 59%]
Pressure (altimeter): 30.15 inches Hg (1021.0 mb)
Winds: from the SSW (200 degrees) at 7 MPH (6 knots; 3.1 m/s)
Visibility: 6 or more miles (10+ km)
Ceiling: ceiling and visibility are OK
Clouds: unknown
Weather: no significant weather observed at this time

METAR text: UNNT 221300Z 19003MPS CAVOK 02/M06 Q1021 R25/190065 R34/110070 NOSIG RMK QFE756/1008
Conditions at: UNNT (TOLMACHEVO , RU) observed 1300 UTC 22 March 2019
Temperature: 2.0°C (36°F)
Dewpoint: -6.0°C (21°F) [RH = 55%]
Pressure (altimeter): 30.15 inches Hg (1021.0 mb)
Winds: from the S (190 degrees) at 7 MPH (6 knots; 3.1 m/s)
Visibility: 6 or more miles (10+ km)
Ceiling: ceiling and visibility are OK
Clouds: unknown
Weather: no significant weather observed at this time

METAR text: UNNT 221230Z 17003MPS CAVOK 01/M05 Q1021 R25/190065 R34/110070 NOSIG RMK QFE756/1008
Conditions at: UNNT (TOLMACHEVO , RU) observed 1230 UTC 22 March 2019
Temperature: 1.0°C (34°F)
Dewpoint: -5.0°C (23°F) [RH = 64%]
Pressure (altimeter): 30.15 inches Hg (1021.0 mb)
Winds: from the S (170 degrees) at 7 MPH (6 knots; 3.1 m/s)
Visibility: 6 or more miles (10+ km)
Ceiling: ceiling and visibility are OK
Clouds: unknown
Weather: no significant weather observed at this time

METAR text: UNNT 221200Z 17003MPS CAVOK 02/M05 Q1021 R25/190065 R34/110070 NOSIG RMK QFE756/1008
Conditions at: UNNT (TOLMACHEVO , RU) observed 1200 UTC 22 March 2019
Temperature: 2.0°C (36°F)
Dewpoint: -5.0°C (23°F) [RH = 60%]
Pressure (altimeter): 30.15 inches Hg (1021.0 mb)
Winds: from the S (170 degrees) at 7 MPH (6 knots; 3.1 m/s)
Visibility: 6 or more miles (10+ km)
Ceiling: ceiling and visibility are OK
Clouds: unknown
Weather: no significant weather observed at this time

METAR text: UNNT 221130Z 18004MPS CAVOK 03/M05 Q1021 R25/190065 R34/110070 NOSIG RMK QFE756/1008
Conditions at: UNNT (TOLMACHEVO , RU) observed 1130 UTC 22 March 2019
Temperature: 3.0°C (37°F)
Dewpoint: -5.0°C (23°F) [RH = 56%]
Pressure (altimeter): 30.15 inches Hg (1021.0 mb)
Winds: from the S (180 degrees) at 9 MPH (8 knots; 4.1 m/s)
Visibility: 6 or more miles (10+ km)
Ceiling: ceiling and visibility are OK
Clouds: unknown
Weather: no significant weather observed at this time

METAR text: UNNT 221100Z 20003MPS CAVOK 04/M06 Q1021 R25/190065 R34/110070 NOSIG RMK QFE756/1008
Conditions at: UNNT (TOLMACHEVO , RU) observed 1100 UTC 22 March 2019
Temperature: 4.0°C (39°F)
Dewpoint: -6.0°C (21°F) [RH = 48%]
Pressure (altimeter): 30.15 inches Hg (1021.0 mb)
Winds: from the SSW (200 degrees) at 7 MPH (6 knots; 3.1 m/s)
Visibility: 6 or more miles (10+ km)
Ceiling: ceiling and visibility are OK
Clouds: unknown
Weather: no significant weather observed at this time

METAR text: UNNT 221030Z 18004MPS CAVOK 03/M06 Q1021 R25/190065 R34/110070 NOSIG RMK QFE756/1008
Conditions at: UNNT (TOLMACHEVO , RU) observed 1030 UTC 22 March 2019
Temperature: 3.0°C (37°F)
Dewpoint: -6.0°C (21°F) [RH = 52%]
Pressure (altimeter): 30.15 inches Hg (1021.0 mb)
Winds: from the S (180 degrees) at 9 MPH (8 knots; 4.1 m/s)
Visibility: 6 or more miles (10+ km)
Ceiling: ceiling and visibility are OK
Clouds: unknown
Weather: no significant weather observed at this time

METAR text: UNNT 221000Z 19004MPS CAVOK 03/M05 Q1022 R25/190065 R34/110070 NOSIG RMK QFE756/1008
Conditions at: UNNT (TOLMACHEVO , RU) observed 1000 UTC 22 March 2019
Temperature: 3.0°C (37°F)
Dewpoint: -5.0°C (23°F) [RH = 56%]
Pressure (altimeter): 30.18 inches Hg (1022.0 mb)
Winds: from the S (190 degrees) at 9 MPH (8 knots; 4.1 m/s)
Visibility: 6 or more miles (10+ km)
Ceiling: ceiling and visibility are OK
Clouds: unknown
Weather: no significant weather observed at this time

METAR text: UNNT 220930Z 17004MPS CAVOK 03/M06 Q1022 R25/190065 R34/110070 NOSIG RMK QFE756/1009
Conditions at: UNNT (TOLMACHEVO , RU) observed 0930 UTC 22 March 2019
Temperature: 3.0°C (37°F)
Dewpoint: -6.0°C (21°F) [RH = 52%]
Pressure (altimeter): 30.18 inches Hg (1022.0 mb)
Winds: from the S (170 degrees) at 9 MPH (8 knots; 4.1 m/s)
Visibility: 6 or more miles (10+ km)
Ceiling: ceiling and visibility are OK
Clouds: unknown
Weather: no significant weather observed at this time

METAR text: UNNT 220900Z 19003MPS CAVOK 03/M06 Q1022 R25/190065 R34/110070 NOSIG RMK QFE756/1009
Conditions at: UNNT (TOLMACHEVO , RU) observed 0900 UTC 22 March 2019
Temperature: 3.0°C (37°F)
Dewpoint: -6.0°C (21°F) [RH = 52%]
Pressure (altimeter): 30.18 inches Hg (1022.0 mb)
Winds: from the S (190 degrees) at 7 MPH (6 knots; 3.1 m/s)
Visibility: 6 or more miles (10+ km)
Ceiling: ceiling and visibility are OK
Clouds: unknown
Weather: no significant weather observed at this time

METAR text: UNNT 220830Z 18005MPS CAVOK 02/M07 Q1022 R25/190065 R34/110070 NOSIG RMK QFE756/1009
Conditions at: UNNT (TOLMACHEVO , RU) observed 0830 UTC 22 March 2019
Temperature: 2.0°C (36°F)
Dewpoint: -7.0°C (19°F) [RH = 51%]
Pressure (altimeter): 30.18 inches Hg (1022.0 mb)
Winds: from the S (180 degrees) at 12 MPH (10 knots; 5.1 m/s)
Visibility: 6 or more miles (10+ km)
Ceiling: ceiling and visibility are OK
Clouds: unknown
Weather: no significant weather observed at this time

METAR text: UNNT 220800Z 19004MPS CAVOK 02/M06 Q1022 R25/190065 R34/110070 NOSIG RMK QFE757/1009
Conditions at: UNNT (TOLMACHEVO , RU) observed 0800 UTC 22 March 2019
Temperature: 2.0°C (36°F)
Dewpoint: -6.0°C (21°F) [RH = 55%]
Pressure (altimeter): 30.18 inches Hg (1022.0 mb)
Winds: from the S (190 degrees) at 9 MPH (8 knots; 4.1 m/s)
Visibility: 6 or more miles (10+ km)
Ceiling: ceiling and visibility are OK
Clouds: unknown
Weather: no significant weather observed at this time

METAR text: UNNT 220730Z 19005MPS CAVOK 01/M07 Q1022 R25/190065 R34/110070 NOSIG RMK QFE757/1009
Conditions at: UNNT (TOLMACHEVO , RU) observed 0730 UTC 22 March 2019
Temperature: 1.0°C (34°F)
Dewpoint: -7.0°C (19°F) [RH = 55%]
Pressure (altimeter): 30.18 inches Hg (1022.0 mb)
Winds: from the S (190 degrees) at 12 MPH (10 knots; 5.1 m/s)
Visibility: 6 or more miles (10+ km)
Ceiling: ceiling and visibility are OK
Clouds: unknown
Weather: no significant weather observed at this time

METAR text: UNNT 220700Z 19004MPS CAVOK 01/M07 Q1023 R25/190065 R34/110070 NOSIG RMK QFE757/1009
Conditions at: UNNT (TOLMACHEVO , RU) observed 0700 UTC 22 March 2019
Temperature: 1.0°C (34°F)
Dewpoint: -7.0°C (19°F) [RH = 55%]
Pressure (altimeter): 30.21 inches Hg (1023.0 mb)
Winds: from the S (190 degrees) at 9 MPH (8 knots; 4.1 m/s)
Visibility: 6 or more miles (10+ km)
Ceiling: ceiling and visibility are OK
Clouds: unknown
Weather: no significant weather observed at this time

METAR text: UNNT 220630Z 18005MPS CAVOK 00/M07 Q1023 R25/190065 R34/110070 NOSIG RMK QFE757/1009
Conditions at: UNNT (TOLMACHEVO , RU) observed 0630 UTC 22 March 2019
Temperature: 0.0°C (32°F)
Dewpoint: -7.0°C (19°F) [RH = 59%]
Pressure (altimeter): 30.21 inches Hg (1023.0 mb)
Winds: from the S (180 degrees) at 12 MPH (10 knots; 5.1 m/s)
Visibility: 6 or more miles (10+ km)
Ceiling: ceiling and visibility are OK
Clouds: unknown
Weather: no significant weather observed at this time

METAR text: UNNT 220600Z 19005MPS CAVOK M00/M07 Q1023 R25/190065 R34/110070 NOSIG RMK QFE757/1010
Conditions at: UNNT (TOLMACHEVO , RU) observed 0600 UTC 22 March 2019
Temperature: 0.0°C (32°F)
Dewpoint: -7.0°C (19°F) [RH = 59%]
Pressure (altimeter): 30.21 inches Hg (1023.0 mb)
Winds: from the S (190 degrees) at 12 MPH (10 knots; 5.1 m/s)
Visibility: 6 or more miles (10+ km)
Ceiling: ceiling and visibility are OK
Clouds: unknown
Weather: no significant weather observed at this time

METAR text: UNNT 220530Z 18005MPS CAVOK M01/M07 Q1023 R25/190065 R34/110070 NOSIG RMK QFE757/1010
Conditions at: UNNT (TOLMACHEVO , RU) observed 0530 UTC 22 March 2019
Temperature: -1.0°C (30°F)
Dewpoint: -7.0°C (19°F) [RH = 64%]
Pressure (altimeter): 30.21 inches Hg (1023.0 mb)
Winds: from the S (180 degrees) at 12 MPH (10 knots; 5.1 m/s)
Visibility: 6 or more miles (10+ km)
Ceiling: ceiling and visibility are OK
Clouds: unknown
Weather: no significant weather observed at this time

METAR text: UNNT 220500Z 18005MPS CAVOK M02/M08 Q1024 R25/190065 R34/110070 NOSIG RMK QFE758/1010
Conditions at: UNNT (TOLMACHEVO , RU) observed 0500 UTC 22 March 2019
Temperature: -2.0°C (28°F)
Dewpoint: -8.0°C (18°F) [RH = 63%]
Pressure (altimeter): 30.24 inches Hg (1024.0 mb)
Winds: from the S (180 degrees) at 12 MPH (10 knots; 5.1 m/s)
Visibility: 6 or more miles (10+ km)
Ceiling: ceiling and visibility are OK
Clouds: unknown
Weather: no significant weather observed at this time

METAR text: UNNT 220430Z 18005MPS CAVOK M03/M08 Q1024 R25/190065 R34/110070 NOSIG RMK QFE758/1010
Conditions at: UNNT (TOLMACHEVO , RU) observed 0430 UTC 22 March 2019
Temperature: -3.0°C (27°F)
Dewpoint: -8.0°C (18°F) [RH = 68%]
Pressure (altimeter): 30.24 inches Hg (1024.0 mb)
Winds: from the S (180 degrees) at 12 MPH (10 knots; 5.1 m/s)
Visibility: 6 or more miles (10+ km)
Ceiling: ceiling and visibility are OK
Clouds: unknown
Weather: no significant weather observed at this time

METAR text: UNNT 220400Z 19005MPS CAVOK M03/M08 Q1024 R25/190065 R34/110070 NOSIG RMK QFE758/1011
Conditions at: UNNT (TOLMACHEVO , RU) observed 0400 UTC 22 March 2019
Temperature: -3.0°C (27°F)
Dewpoint: -8.0°C (18°F) [RH = 68%]
Pressure (altimeter): 30.24 inches Hg (1024.0 mb)
Winds: from the S (190 degrees) at 12 MPH (10 knots; 5.1 m/s)
Visibility: 6 or more miles (10+ km)
Ceiling: ceiling and visibility are OK
Clouds: unknown
Weather: no significant weather observed at this time

METAR text: UNNT 220330Z 20004MPS CAVOK M04/M08 Q1024 R25/190065 R34/110070 NOSIG RMK QFE758/1011
Conditions at: UNNT (TOLMACHEVO , RU) observed 0330 UTC 22 March 2019
Temperature: -4.0°C (25°F)
Dewpoint: -8.0°C (18°F) [RH = 74%]
Pressure (altimeter): 30.24 inches Hg (1024.0 mb)
Winds: from the SSW (200 degrees) at 9 MPH (8 knots; 4.1 m/s)
Visibility: 6 or more miles (10+ km)
Ceiling: ceiling and visibility are OK
Clouds: unknown
Weather: no significant weather observed at this time

METAR text: UNNT 220300Z 18005MPS CAVOK M05/M09 Q1024 R25/190065 R34/110070 NOSIG RMK QFE758/1011
Conditions at: UNNT (TOLMACHEVO , RU) observed 0300 UTC 22 March 2019
Temperature: -5.0°C (23°F)
Dewpoint: -9.0°C (16°F) [RH = 73%]
Pressure (altimeter): 30.24 inches Hg (1024.0 mb)
Winds: from the S (180 degrees) at 12 MPH (10 knots; 5.1 m/s)
Visibility: 6 or more miles (10+ km)
Ceiling: ceiling and visibility are OK
Clouds: unknown
Weather: no significant weather observed at this time

METAR text: UNNT 220230Z 19005MPS CAVOK M05/M09 Q1024 R25/190065 R34/110070 NOSIG RMK QFE758/1011
Conditions at: UNNT (TOLMACHEVO , RU) observed 0230 UTC 22 March 2019
Temperature: -5.0°C (23°F)
Dewpoint: -9.0°C (16°F) [RH = 73%]
Pressure (altimeter): 30.24 inches Hg (1024.0 mb)
Winds: from the S (190 degrees) at 12 MPH (10 knots; 5.1 m/s)
Visibility: 6 or more miles (10+ km)
Ceiling: ceiling and visibility are OK
Clouds: unknown
Weather: no significant weather observed at this time

METAR text: UNNT 220200Z 19005MPS CAVOK M06/M10 Q1024 R25/190065 R34/110070 NOSIG RMK QFE758/1011
Conditions at: UNNT (TOLMACHEVO , RU) observed 0200 UTC 22 March 2019
Temperature: -6.0°C (21°F)
Dewpoint: -10.0°C (14°F) [RH = 73%]
Pressure (altimeter): 30.24 inches Hg (1024.0 mb)
Winds: from the S (190 degrees) at 12 MPH (10 knots; 5.1 m/s)
Visibility: 6 or more miles (10+ km)
Ceiling: ceiling and visibility are OK
Clouds: unknown
Weather: no significant weather observed at this time

METAR text: UNNT 220130Z 18004MPS CAVOK M06/M10 Q1024 R25/190065 R34/110070 NOSIG RMK QFE758/1011
Conditions at: UNNT (TOLMACHEVO , RU) observed 0130 UTC 22 March 2019
Temperature: -6.0°C (21°F)
Dewpoint: -10.0°C (14°F) [RH = 73%]
Pressure (altimeter): 30.24 inches Hg (1024.0 mb)
Winds: from the S (180 degrees) at 9 MPH (8 knots; 4.1 m/s)
Visibility: 6 or more miles (10+ km)
Ceiling: ceiling and visibility are OK
Clouds: unknown
Weather: no significant weather observed at this time

METAR text: UNNT 220100Z 18005MPS CAVOK M06/M10 Q1024 R25/190065 R34/110070 NOSIG RMK QFE758/1011
Conditions at: UNNT (TOLMACHEVO , RU) observed 0100 UTC 22 March 2019
Temperature: -6.0°C (21°F)
Dewpoint: -10.0°C (14°F) [RH = 73%]
Pressure (altimeter): 30.24 inches Hg (1024.0 mb)
Winds: from the S (180 degrees) at 12 MPH (10 knots; 5.1 m/s)
Visibility: 6 or more miles (10+ km)
Ceiling: ceiling and visibility are OK
Clouds: unknown
Weather: no significant weather observed at this time

METAR text: UNNT 220030Z 18005MPS CAVOK M06/M10 Q1024 R25/190065 R34/110070 NOSIG RMK QFE758/1011
Conditions at: UNNT (TOLMACHEVO , RU) observed 0030 UTC 22 March 2019
Temperature: -6.0°C (21°F)
Dewpoint: -10.0°C (14°F) [RH = 73%]
Pressure (altimeter): 30.24 inches Hg (1024.0 mb)
Winds: from the S (180 degrees) at 12 MPH (10 knots; 5.1 m/s)
Visibility: 6 or more miles (10+ km)
Ceiling: ceiling and visibility are OK
Clouds: unknown
Weather: no significant weather observed at this time

METAR text: UNNT 220000Z 18005MPS CAVOK M07/M10 Q1024 R25/190065 R34/110070 NOSIG RMK QFE758/1011
Conditions at: UNNT (TOLMACHEVO , RU) observed 0000 UTC 22 March 2019
Temperature: -7.0°C (19°F)
Dewpoint: -10.0°C (14°F) [RH = 79%]
Pressure (altimeter): 30.24 inches Hg (1024.0 mb)
Winds: from the S (180 degrees) at 12 MPH (10 knots; 5.1 m/s)
Visibility: 6 or more miles (10+ km)
Ceiling: ceiling and visibility are OK
Clouds: unknown
Weather: no significant weather observed at this time

METAR text: UNNT 212330Z 18004MPS CAVOK M06/M10 Q1024 R25/190065 R34/110070 NOSIG RMK QFE758/1011
Conditions at: UNNT (TOLMACHEVO , RU) observed 2330 UTC 21 March 2019
Temperature: -6.0°C (21°F)
Dewpoint: -10.0°C (14°F) [RH = 73%]
Pressure (altimeter): 30.24 inches Hg (1024.0 mb)
Winds: from the S (180 degrees) at 9 MPH (8 knots; 4.1 m/s)
Visibility: 6 or more miles (10+ km)
Ceiling: ceiling and visibility are OK
Clouds: unknown
Weather: no significant weather observed at this time

METAR text: UNNT 212300Z 17004MPS 9999 NSC M07/M10 Q1024 R25/190065 R34/110070 NOSIG RMK QFE758/1011
Conditions at: UNNT (TOLMACHEVO , RU) observed 2300 UTC 21 March 2019
Temperature: -7.0°C (19°F)
Dewpoint: -10.0°C (14°F) [RH = 79%]
Pressure (altimeter): 30.24 inches Hg (1024.0 mb)
Winds: from the S (170 degrees) at 9 MPH (8 knots; 4.1 m/s)
Visibility: 6 or more miles (10+ km)
Ceiling: at least 12,000 feet AGL
Clouds: sky clear below 12,000 feet AGL
Weather: no significant weather observed at this time

METAR text: UNNT 212230Z 18002MPS CAVOK M06/M10 Q1024 R25/190065 R34/110070 NOSIG RMK QFE758/1011
Conditions at: UNNT (TOLMACHEVO , RU) observed 2230 UTC 21 March 2019
Temperature: -6.0°C (21°F)
Dewpoint: -10.0°C (14°F) [RH = 73%]
Pressure (altimeter): 30.24 inches Hg (1024.0 mb)
Winds: from the S (180 degrees) at 5 MPH (4 knots; 2.1 m/s)
Visibility: 6 or more miles (10+ km)
Ceiling: ceiling and visibility are OK
Clouds: unknown
Weather: no significant weather observed at this time

METAR text: UNNT 212200Z 18003MPS CAVOK M06/M10 Q1024 R07/190065 R34/110070 NOSIG RMK QFE758/1011
Conditions at: UNNT (TOLMACHEVO , RU) observed 2200 UTC 21 March 2019
Temperature: -6.0°C (21°F)
Dewpoint: -10.0°C (14°F) [RH = 73%]
Pressure (altimeter): 30.24 inches Hg (1024.0 mb)
Winds: from the S (180 degrees) at 7 MPH (6 knots; 3.1 m/s)
Visibility: 6 or more miles (10+ km)
Ceiling: ceiling and visibility are OK
Clouds: unknown
Weather: no significant weather observed at this time

METAR text: UNNT 212130Z 17002MPS CAVOK M07/M10 Q1025 R07/190065 R34/110070 NOSIG RMK QFE758/1011
Conditions at: UNNT (TOLMACHEVO , RU) observed 2130 UTC 21 March 2019
Temperature: -7.0°C (19°F)
Dewpoint: -10.0°C (14°F) [RH = 79%]
Pressure (altimeter): 30.27 inches Hg (1025.0 mb)
Winds: from the S (170 degrees) at 5 MPH (4 knots; 2.1 m/s)
Visibility: 6 or more miles (10+ km)
Ceiling: ceiling and visibility are OK
Clouds: unknown
Weather: no significant weather observed at this time

METAR text: UNNT 212100Z 00000MPS CAVOK M06/M10 Q1025 R07/190065 R34/110070 NOSIG RMK QFE758/1011
Conditions at: UNNT (TOLMACHEVO , RU) observed 2100 UTC 21 March 2019
Temperature: -6.0°C (21°F)
Dewpoint: -10.0°C (14°F) [RH = 73%]
Pressure (altimeter): 30.27 inches Hg (1025.0 mb)
Winds: calm
Visibility: 6 or more miles (10+ km)
Ceiling: ceiling and visibility are OK
Clouds: unknown
Weather: no significant weather observed at this time

METAR text: UNNT 212030Z 16004MPS CAVOK M06/M09 Q1025 R25/190065 R34/110070 NOSIG RMK QFE759/1012
Conditions at: UNNT (TOLMACHEVO , RU) observed 2030 UTC 21 March 2019
Temperature: -6.0°C (21°F)
Dewpoint: -9.0°C (16°F) [RH = 79%]
Pressure (altimeter): 30.27 inches Hg (1025.0 mb)
Winds: from the SSE (160 degrees) at 9 MPH (8 knots; 4.1 m/s)
Visibility: 6 or more miles (10+ km)
Ceiling: ceiling and visibility are OK
Clouds: unknown
Weather: no significant weather observed at this time

METAR text: UNNT 212000Z 16004MPS CAVOK M06/M09 Q1026 R25/190065 R34/110070 NOSIG RMK QFE759/1012
Conditions at: UNNT (TOLMACHEVO , RU) observed 2000 UTC 21 March 2019
Temperature: -6.0°C (21°F)
Dewpoint: -9.0°C (16°F) [RH = 79%]
Pressure (altimeter): 30.30 inches Hg (1026.0 mb)
Winds: from the SSE (160 degrees) at 9 MPH (8 knots; 4.1 m/s)
Visibility: 6 or more miles (10+ km)
Ceiling: ceiling and visibility are OK
Clouds: unknown
Weather: no significant weather observed at this time

METAR text: UNNT 211930Z 17002MPS CAVOK M05/M09 Q1026 R07/190065 R34/110070 NOSIG RMK QFE759/1013
Conditions at: UNNT (TOLMACHEVO , RU) observed 1930 UTC 21 March 2019
Temperature: -5.0°C (23°F)
Dewpoint: -9.0°C (16°F) [RH = 73%]
Pressure (altimeter): 30.30 inches Hg (1026.0 mb)
Winds: from the S (170 degrees) at 5 MPH (4 knots; 2.1 m/s)
Visibility: 6 or more miles (10+ km)
Ceiling: ceiling and visibility are OK
Clouds: unknown
Weather: no significant weather observed at this time

METAR text: UNNT 211900Z 17003MPS CAVOK M04/M09 Q1026 R07/190065 R34/110070 NOSIG RMK QFE760/1013
Conditions at: UNNT (TOLMACHEVO , RU) observed 1900 UTC 21 March 2019
Temperature: -4.0°C (25°F)
Dewpoint: -9.0°C (16°F) [RH = 68%]
Pressure (altimeter): 30.30 inches Hg (1026.0 mb)
Winds: from the S (170 degrees) at 7 MPH (6 knots; 3.1 m/s)
Visibility: 6 or more miles (10+ km)
Ceiling: ceiling and visibility are OK
Clouds: unknown
Weather: no significant weather observed at this time

METAR text: UNNT 211830Z 17002MPS CAVOK M04/M09 Q1026 R07/190065 R34/110070 NOSIG RMK QFE760/1013
Conditions at: UNNT (TOLMACHEVO , RU) observed 1830 UTC 21 March 2019
Temperature: -4.0°C (25°F)
Dewpoint: -9.0°C (16°F) [RH = 68%]
Pressure (altimeter): 30.30 inches Hg (1026.0 mb)
Winds: from the S (170 degrees) at 5 MPH (4 knots; 2.1 m/s)
Visibility: 6 or more miles (10+ km)
Ceiling: ceiling and visibility are OK
Clouds: unknown
Weather: no significant weather observed at this time

METAR text: UNNT 211800Z 18003MPS CAVOK M03/M08 Q1027 R25/190065 R34/110070 NOSIG RMK QFE760/1013
Conditions at: UNNT (TOLMACHEVO , RU) observed 1800 UTC 21 March 2019
Temperature: -3.0°C (27°F)
Dewpoint: -8.0°C (18°F) [RH = 68%]
Pressure (altimeter): 30.32 inches Hg (1027.0 mb)
Winds: from the S (180 degrees) at 7 MPH (6 knots; 3.1 m/s)
Visibility: 6 or more miles (10+ km)
Ceiling: ceiling and visibility are OK
Clouds: unknown
Weather: no significant weather observed at this time

METAR text: UNNT 211730Z 18003MPS CAVOK M03/M08 Q1027 R07/190065 R34/110070 NOSIG RMK QFE760/1014
Conditions at: UNNT (TOLMACHEVO , RU) observed 1730 UTC 21 March 2019
Temperature: -3.0°C (27°F)
Dewpoint: -8.0°C (18°F) [RH = 68%]
Pressure (altimeter): 30.32 inches Hg (1027.0 mb)
Winds: from the S (180 degrees) at 7 MPH (6 knots; 3.1 m/s)
Visibility: 6 or more miles (10+ km)
Ceiling: ceiling and visibility are OK
Clouds: unknown
Weather: no significant weather observed at this time

METAR text: UNNT 211700Z 17003MPS CAVOK M04/M08 Q1027 R07/190065 R34/110070 NOSIG RMK QFE760/1014
Conditions at: UNNT (TOLMACHEVO , RU) observed 1700 UTC 21 March 2019
Temperature: -4.0°C (25°F)
Dewpoint: -8.0°C (18°F) [RH = 74%]
Pressure (altimeter): 30.32 inches Hg (1027.0 mb)
Winds: from the S (170 degrees) at 7 MPH (6 knots; 3.1 m/s)
Visibility: 6 or more miles (10+ km)
Ceiling: ceiling and visibility are OK
Clouds: unknown
Weather: no significant weather observed at this time

METAR text: UNNT 211630Z 18003MPS CAVOK M03/M08 Q1027 R07/190065 R34/110070 NOSIG RMK QFE761/1014
Conditions at: UNNT (TOLMACHEVO , RU) observed 1630 UTC 21 March 2019
Temperature: -3.0°C (27°F)
Dewpoint: -8.0°C (18°F) [RH = 68%]
Pressure (altimeter): 30.32 inches Hg (1027.0 mb)
Winds: from the S (180 degrees) at 7 MPH (6 knots; 3.1 m/s)
Visibility: 6 or more miles (10+ km)
Ceiling: ceiling and visibility are OK
Clouds: unknown
Weather: no significant weather observed at this time

METAR text: UNNT 211600Z 18002MPS CAVOK M03/M08 Q1028 R07/190065 R34/110070 NOSIG RMK QFE761/1014
Conditions at: UNNT (TOLMACHEVO , RU) observed 1600 UTC 21 March 2019
Temperature: -3.0°C (27°F)
Dewpoint: -8.0°C (18°F) [RH = 68%]
Pressure (altimeter): 30.35 inches Hg (1028.0 mb)
Winds: from the S (180 degrees) at 5 MPH (4 knots; 2.1 m/s)
Visibility: 6 or more miles (10+ km)
Ceiling: ceiling and visibility are OK
Clouds: unknown
Weather: no significant weather observed at this time

METAR text: UNNT 211530Z 18002MPS CAVOK M03/M08 Q1028 R07/190065 R34/110070 NOSIG RMK QFE761/1015
Conditions at: UNNT (TOLMACHEVO , RU) observed 1530 UTC 21 March 2019
Temperature: -3.0°C (27°F)
Dewpoint: -8.0°C (18°F) [RH = 68%]
Pressure (altimeter): 30.35 inches Hg (1028.0 mb)
Winds: from the S (180 degrees) at 5 MPH (4 knots; 2.1 m/s)
Visibility: 6 or more miles (10+ km)
Ceiling: ceiling and visibility are OK
Clouds: unknown
Weather: no significant weather observed at this time

METAR text: UNNT 211500Z 17002MPS 9999 NSC M02/M08 Q1028 R25/190065 R34/110070 NOSIG RMK QFE761/1015
Conditions at: UNNT (TOLMACHEVO , RU) observed 1500 UTC 21 March 2019
Temperature: -2.0°C (28°F)
Dewpoint: -8.0°C (18°F) [RH = 63%]
Pressure (altimeter): 30.35 inches Hg (1028.0 mb)
Winds: from the S (170 degrees) at 5 MPH (4 knots; 2.1 m/s)
Visibility: 6 or more miles (10+ km)
Ceiling: at least 12,000 feet AGL
Clouds: sky clear below 12,000 feet AGL
Weather: no significant weather observed at this time

METAR text: UNNT 211430Z 17002MPS 9999 NSC M02/M08 Q1028 R25/190065 R34/110070 NOSIG RMK QFE761/1015
Conditions at: UNNT (TOLMACHEVO , RU) observed 1430 UTC 21 March 2019
Temperature: -2.0°C (28°F)
Dewpoint: -8.0°C (18°F) [RH = 63%]
Pressure (altimeter): 30.35 inches Hg (1028.0 mb)
Winds: from the S (170 degrees) at 5 MPH (4 knots; 2.1 m/s)
Visibility: 6 or more miles (10+ km)
Ceiling: at least 12,000 feet AGL
Clouds: sky clear below 12,000 feet AGL
Weather: no significant weather observed at this time

METAR text: UNNT 211400Z 18001MPS 9999 NSC M01/M08 Q1029 R25/190065 R34/110070 NOSIG RMK QFE761/1015
Conditions at: UNNT (TOLMACHEVO , RU) observed 1400 UTC 21 March 2019
Temperature: -1.0°C (30°F)
Dewpoint: -8.0°C (18°F) [RH = 59%]
Pressure (altimeter): 30.38 inches Hg (1029.0 mb)
Winds: from the S (180 degrees) at 2 MPH (2 knots; 1.0 m/s)
Visibility: 6 or more miles (10+ km)
Ceiling: at least 12,000 feet AGL
Clouds: sky clear below 12,000 feet AGL
Weather: no significant weather observed at this time

METAR text: UNNT 211330Z 17002MPS 9999 NSC M01/M08 Q1029 R25/190065 R34/110070 NOSIG RMK QFE761/1015
Conditions at: UNNT (TOLMACHEVO , RU) observed 1330 UTC 21 March 2019
Temperature: -1.0°C (30°F)
Dewpoint: -8.0°C (18°F) [RH = 59%]
Pressure (altimeter): 30.38 inches Hg (1029.0 mb)
Winds: from the S (170 degrees) at 5 MPH (4 knots; 2.1 m/s)
Visibility: 6 or more miles (10+ km)
Ceiling: at least 12,000 feet AGL
Clouds: sky clear below 12,000 feet AGL
Weather: no significant weather observed at this time

METAR text: UNNT 211300Z 20001MPS CAVOK M00/M07 Q1029 R25/190065 R34/110070 NOSIG RMK QFE762/1016
Conditions at: UNNT (TOLMACHEVO , RU) observed 1300 UTC 21 March 2019
Temperature: 0.0°C (32°F)
Dewpoint: -7.0°C (19°F) [RH = 59%]
Pressure (altimeter): 30.38 inches Hg (1029.0 mb)
Winds: from the SSW (200 degrees) at 2 MPH (2 knots; 1.0 m/s)
Visibility: 6 or more miles (10+ km)
Ceiling: ceiling and visibility are OK
Clouds: unknown
Weather: no significant weather observed at this time

METAR text: UNNT 211230Z 17002MPS 140V210 CAVOK 00/M07 Q1029 R25/190065 R34/110070 NOSIG RMK QFE762/1016
Conditions at: UNNT (TOLMACHEVO , RU) observed 1230 UTC 21 March 2019
Temperature: 0.0°C (32°F)
Dewpoint: -7.0°C (19°F) [RH = 59%]
Pressure (altimeter): 30.38 inches Hg (1029.0 mb)
Winds: from the S (170 degrees) at 5 MPH (4 knots; 2.1 m/s)
Visibility: 6 or more miles (10+ km)
Ceiling: ceiling and visibility are OK
Clouds: unknown
Weather: no significant weather observed at this time

Forecast for: UNNT (TOLMACHEVO , RU)
Text: TAF UNNT 222300Z 2300/2324 18003MPS CAVOK
Forecast period: 0000 UTC 23 March 2019 to 0000 UTC 24 March 2019
Forecast type: FROM: standard forecast or significant change
Winds: from the S (180 degrees) at 7 MPH (6 knots; 3.1 m/s)
Visibility: 6 or more miles 10+ km)
Ceiling: unknown
Clouds: missing
Weather: NSW  (no significant weather)
Text: TEMPO 2300/2304 0300 FZFG SCT002
Forecast period: 0000 to 0400 UTC 23 March 2019
Forecast type: TEMPORARY: The following changes expected for less than half the time period
Visibility: 0.19 miles (0.31 km)
Ceiling: at least 12,000 feet AGL
Clouds: scattered clouds at 200 feet AGL
Weather: FZFG  (freezing fog)